Time;durP1;ratioP1;P1;durP2;ratioP2;P2;SDS_P1;SDS_P2;PMS_P1;PMS_P2;Temp;Humidity;BMP_temperature;BMP_pressure;BME280_temperature;BME280_humidity;BME280_pressure;Samples;Min_cycle;Max_cycle;Signal;HPM_P1;HPM_P2
2021/11/02 00:02:12;;;;;;;61.60;54.80;;;;;;;9.27;68.39;99137.39;118616;1176;22748;-77
2021/11/02 00:04:40;;;;;;;64.10;56.60;;;;;;;9.33;68.37;99136.11;118956;1171;21883;-77
2021/11/02 00:07:07;;;;;;;63.90;56.20;;;;;;;9.39;68.29;99133.77;119210;1169;21865;-77
2021/11/02 00:09:43;;;;;;;72.90;60.80;;;;;;;9.43;68.31;99132.83;119261;1171;21897;-77
2021/11/02 00:12:15;;;;;;;65.40;55.20;;;;;;;9.49;68.24;99130.13;118854;1174;22342;-77
2021/11/02 00:14:43;;;;;;;62.30;55.60;;;;;;;9.52;68.10;99121.91;118756;1174;21890;-77
2021/11/02 00:17:16;;;;;;;60.50;54.20;;;;;;;9.54;67.92;99118.20;118811;1174;21859;-76
2021/11/02 00:19:46;;;;;;;58.20;51.10;;;;;;;9.55;67.71;99118.17;118789;1175;21848;-77
2021/11/02 00:22:18;;;;;;;61.20;53.50;;;;;;;9.56;67.73;99118.63;118900;1171;24274;-77
2021/11/02 00:27:23;;;;;;;58.90;52.60;;;;;;;9.57;67.70;99122.23;118845;1174;21863;-77
2021/11/02 00:29:54;;;;;;;63.90;54.80;;;;;;;9.58;67.83;99121.52;118822;1172;21894;-77
2021/11/02 00:32:23;;;;;;;66.70;58.40;;;;;;;9.62;68.03;99119.84;118989;1174;23518;-77
2021/11/02 00:34:52;;;;;;;68.10;58.90;;;;;;;9.64;67.88;99117.43;118991;1174;22812;-78
2021/11/02 00:37:20;;;;;;;66.60;55.30;;;;;;;9.66;67.72;99112.32;118965;1174;23449;-77
2021/11/02 00:39:47;;;;;;;59.80;53.40;;;;;;;9.67;67.71;99108.86;118704;1176;22935;-78
2021/11/02 00:42:15;;;;;;;58.10;51.80;;;;;;;9.66;67.59;99105.72;118644;1174;21910;-77
2021/11/02 00:44:45;;;;;;;60.20;53.50;;;;;;;9.66;67.50;99101.85;118311;1175;21871;-77
2021/11/02 00:47:17;;;;;;;59.60;52.00;;;;;;;9.67;67.60;99103.44;118304;1179;22610;-77
2021/11/02 00:49:45;;;;;;;58.60;52.50;;;;;;;9.67;67.73;99100.20;118385;1175;23436;-77
2021/11/02 00:52:14;;;;;;;61.80;54.00;;;;;;;9.70;67.94;99100.17;118740;1173;21868;-78
2021/11/02 00:54:42;;;;;;;58.80;51.10;;;;;;;9.71;67.82;99095.08;118414;1177;21922;-77
2021/11/02 00:57:09;;;;;;;58.30;51.90;;;;;;;9.73;67.69;99092.41;118373;1175;21899;-77
2021/11/02 00:59:37;;;;;;;58.70;51.30;;;;;;;9.72;67.62;99088.88;118865;1175;21892;-77
2021/11/02 01:02:08;;;;;;;61.40;54.70;;;;;;;9.72;67.66;99085.89;118891;1162;21899;-77
2021/11/02 01:04:36;;;;;;;59.40;53.10;;;;;;;9.71;67.65;99083.56;119237;1170;21864;-77
2021/11/02 01:07:06;;;;;;;62.10;53.60;;;;;;;9.71;67.73;99083.95;119334;1170;23472;-77
2021/11/02 01:09:35;;;;;;;59.80;53.40;;;;;;;9.72;67.89;99081.16;119305;1170;21899;-77
2021/11/02 01:12:03;;;;;;;57.70;51.70;;;;;;;9.73;68.03;99077.27;119289;1170;22277;-77
2021/11/02 01:14:33;;;;;;;57.40;51.30;;;;;;;9.73;67.92;99073.76;119231;1170;21873;-77
2021/11/02 01:17:02;;;;;;;60.00;53.60;;;;;;;9.73;67.84;99065.48;119241;1170;21842;-77
2021/11/02 01:19:31;;;;;;;62.50;55.80;;;;;;;9.72;67.84;99062.46;118711;1175;23453;-77
2021/11/02 01:21:59;;;;;;;66.50;56.40;;;;;;;9.68;67.80;99061.27;118769;1171;23653;-78
2021/11/02 01:24:28;;;;;;;71.80;59.80;;;;;;;9.64;67.80;99058.60;118808;1175;21861;-78
2021/11/02 01:26:56;;;;;;;65.50;55.60;;;;;;;9.61;67.91;99059.31;118748;1175;21883;-78
2021/11/02 01:29:26;;;;;;;59.00;52.40;;;;;;;9.55;67.80;99056.64;118745;1175;23186;-78
2021/11/02 01:31:54;;;;;;;61.60;52.10;;;;;;;9.47;67.78;99050.66;118916;1171;21876;-78
2021/11/02 01:34:22;;;;;;;75.90;58.80;;;;;;;9.43;68.17;99053.10;118908;1165;22975;-78
2021/11/02 01:36:54;;;;;;;67.10;59.80;;;;;;;9.42;68.41;99050.06;118515;1174;21862;-77
2021/11/02 01:39:23;;;;;;;67.40;59.70;;;;;;;9.39;68.42;99041.25;118645;1174;23528;-78
2021/11/02 01:41:52;;;;;;;69.10;58.30;;;;;;;9.39;68.75;99037.10;118998;1173;21959;-77
2021/11/02 01:44:20;;;;;;;64.40;57.40;;;;;;;9.43;68.90;99040.46;118610;1176;22105;-77
2021/11/02 01:46:49;;;;;;;63.90;57.10;;;;;;;9.45;68.84;99037.02;118290;1179;24458;-77
2021/11/02 01:49:18;;;;;;;60.90;54.40;;;;;;;9.43;68.56;99033.24;118237;1179;23530;-77
2021/11/02 01:51:46;;;;;;;63.20;56.40;;;;;;;9.40;68.59;99026.03;118292;1179;22885;-77
2021/11/02 01:54:15;;;;;;;62.80;54.40;;;;;;;9.42;69.06;99019.12;117893;1181;21891;-77
2021/11/02 01:56:49;;;;;;;64.10;56.30;;;;;;;9.47;69.06;99018.75;117897;1181;23117;-77
2021/11/02 01:59:22;;;;;;;60.00;53.80;;;;;;;9.49;68.92;99015.27;117904;1182;22276;-77
2021/11/02 02:02:18;;;;;;;58.40;52.20;;;;;;;9.53;69.07;99012.73;118005;1178;22603;-78
2021/11/02 02:04:58;;;;;;;63.40;56.40;;;;;;;9.57;69.28;99013.56;118469;1175;21887;-78
2021/11/02 02:08:01;;;;;;;56.40;48.10;;;;;;;9.59;69.03;99013.10;118831;1174;22072;-77
2021/11/02 02:11:08;;;;;;;51.40;45.70;;;;;;;9.56;68.91;99010.00;118781;1172;21888;-77
2021/11/02 02:14:07;;;;;;;47.80;42.80;;;;;;;9.53;68.82;99008.27;119252;1171;24186;-77
2021/11/02 02:16:43;;;;;;;51.00;44.30;;;;;;;9.54;69.12;99007.92;119268;1170;21862;-77
2021/11/02 02:20:19;;;;;;;49.90;44.70;;;;;;;9.59;69.27;99007.27;119240;1170;23461;-77
2021/11/02 02:23:33;;;;;;;51.10;45.60;;;;;;;9.64;69.15;99002.95;118841;1175;23407;-77
2021/11/02 02:26:34;;;;;;;50.70;45.30;;;;;;;9.68;68.86;98998.17;118715;1165;21866;-77
2021/11/02 02:29:07;;;;;;;51.90;46.60;;;;;;;9.70;68.70;98993.36;118767;1176;21876;-77
2021/11/02 02:31:39;;;;;;;50.40;45.30;;;;;;;9.71;68.53;98990.17;118867;1171;22828;-76
2021/11/02 02:34:14;;;;;;;51.80;46.30;;;;;;;9.73;68.43;98986.65;118735;1175;22870;-77
2021/11/02 02:36:52;;;;;;;50.00;44.80;;;;;;;9.74;68.49;98982.39;118594;1175;23797;-76
2021/11/02 02:39:22;;;;;;;52.30;46.90;;;;;;;9.75;68.45;98981.29;118839;1176;21877;-76
2021/11/02 02:42:02;;;;;;;53.20;48.00;;;;;;;9.73;68.33;98975.16;118557;1176;23419;-77
2021/11/02 02:44:30;;;;;;;52.40;47.10;;;;;;;9.72;68.18;98973.42;118535;1175;21872;-77
2021/11/02 02:47:01;;;;;;;52.70;47.40;;;;;;;9.72;68.35;98972.16;118284;1179;22641;-77
2021/11/02 02:49:30;;;;;;;63.20;55.30;;;;;;;9.74;68.50;98972.16;118216;1179;22640;-77
2021/11/02 02:52:00;;;;;;;56.60;50.80;;;;;;;9.75;68.47;98967.05;118064;1179;22882;-76
2021/11/02 02:54:29;;;;;;;54.20;48.40;;;;;;;9.75;68.48;98963.08;117994;1177;22286;-77
2021/11/02 02:57:02;;;;;;;52.40;47.30;;;;;;;9.78;68.52;98961.35;118253;1175;23951;-77
2021/11/02 02:59:31;;;;;;;52.30;46.70;;;;;;;9.79;68.41;98965.82;118288;1176;22119;-76
2021/11/02 03:01:59;;;;;;;54.60;49.00;;;;;;;9.79;68.45;98967.13;118493;1175;22212;-77
2021/11/02 03:04:33;;;;;;;54.00;47.50;;;;;;;9.83;68.73;98968.02;118573;1173;22899;-76
2021/11/02 03:07:06;;;;;;;52.70;47.20;;;;;;;9.87;68.74;98967.52;119132;1173;21898;-76
2021/11/02 03:09:34;;;;;;;50.00;45.00;;;;;;;9.90;68.59;98963.30;119112;1161;22928;-75
2021/11/02 03:12:06;;;;;;;55.30;49.30;;;;;;;9.92;68.46;98962.21;119146;1160;22926;-77
2021/11/02 03:17:59;;;;;;;49.90;44.80;;;;;;;9.89;68.32;98957.02;118592;1175;21872;-77
2021/11/02 03:48:13;;;;;;;48.10;43.20;;;;;;;10.02;68.26;98950.20;118775;1174;21858;-77
2021/11/02 05:11:07;;;;;;;40.10;36.10;;;;;;;10.55;70.20;98930.59;118858;1174;22888;-78
2021/11/02 05:49:25;;;;;;;46.70;41.90;;;;;;;10.31;72.10;98924.02;118409;1176;21865;-77
2021/11/02 05:57:27;;;;;;;46.40;41.90;;;;;;;10.28;72.95;98917.77;118435;1174;22754;-77
2021/11/02 06:00:22;;;;;;;47.50;42.90;;;;;;;10.31;73.25;98916.68;118325;1178;22696;-78
2021/11/02 06:03:42;;;;;;;46.10;41.40;;;;;;;10.35;73.54;98917.01;118270;1179;22265;-78
2021/11/02 06:29:03;;;;;;;44.10;39.60;;;;;;;10.26;74.76;98912.77;117610;1184;21867;-76
2021/11/02 07:23:16;;;;;;;46.40;41.50;;;;;;;9.85;77.45;98934.16;119187;1172;21871;-78
2021/11/02 08:47:21;;;;;;;;;;;;;;;10.20;79.39;98923.48;119895;1170;21885;-79
2021/11/02 08:49:57;;;;;;;52.90;47.30;;;;;;;10.21;79.78;98919.77;119564;1170;21871;-79
2021/11/02 08:52:27;;;;;;;51.50;46.50;;;;;;;10.26;79.59;98918.86;119720;1170;22573;-77
2021/11/02 08:55:02;;;;;;;52.70;47.20;;;;;;;10.30;79.48;98920.30;119678;1170;21961;-79
2021/11/02 08:57:35;;;;;;;53.50;47.90;;;;;;;10.33;79.37;98920.99;119114;1173;21884;-79
2021/11/02 09:00:06;;;;;;;54.80;49.20;;;;;;;10.37;79.32;98922.42;119235;1170;23473;-80
2021/11/02 09:02:47;;;;;;;54.40;48.50;;;;;;;10.41;79.33;98925.95;119169;1174;22889;-80
2021/11/02 09:05:25;;;;;;;52.60;47.20;;;;;;;10.45;79.27;98925.14;119158;1171;21855;-78
2021/11/02 09:07:59;;;;;;;51.20;46.00;;;;;;;10.45;79.22;98923.48;119173;1173;21943;-79
2021/11/02 09:10:30;;;;;;;52.50;46.80;;;;;;;10.49;79.28;98925.12;119128;1171;21834;-78
2021/11/02 09:12:59;;;;;;;46.60;41.90;;;;;;;10.52;79.18;98926.08;119060;1173;23032;-80
2021/11/02 09:15:36;;;;;;;46.80;41.90;;;;;;;10.49;78.93;98923.40;119376;1170;21845;-80
2021/11/02 09:18:12;;;;;;;50.90;45.50;;;;;;;10.47;79.12;98922.35;119507;1170;23433;-79
2021/11/02 09:20:42;;;;;;;44.50;40.10;;;;;;;10.47;79.25;98924.13;119370;1170;22920;-79
2021/11/02 09:23:13;;;;;;;46.20;41.20;;;;;;;10.48;79.12;98926.29;119330;1170;21853;-79
2021/11/02 09:25:47;;;;;;;46.90;41.60;;;;;;;10.51;79.37;98923.41;119363;1170;21840;-79
2021/11/02 09:28:26;;;;;;;45.10;40.20;;;;;;;10.54;79.45;98920.55;119644;1171;21839;-80
2021/11/02 09:30:57;;;;;;;45.70;40.90;;;;;;;10.56;79.37;98922.71;119601;1170;21857;-79
2021/11/02 09:33:26;;;;;;;41.10;37.00;;;;;;;10.57;79.35;98917.95;119019;1174;21854;-79
2021/11/02 09:36:08;;;;;;;39.30;35.20;;;;;;;10.57;79.28;98914.99;119008;1174;23514;-79
2021/11/02 09:39:04;;;;;;;37.00;33.00;;;;;;;10.57;79.38;98910.98;118963;1174;22903;-78
2021/11/02 09:42:43;;;;;;;33.80;30.20;;;;;;;10.55;79.34;98911.50;118495;1174;23530;-80
2021/11/02 09:46:13;;;;;;;42.60;38.10;;;;;;;10.52;79.51;98907.69;118628;1177;23521;-80
2021/11/02 09:49:18;;;;;;;43.10;36.40;;;;;;;10.53;79.64;98909.30;118122;1177;21868;-80
2021/11/02 09:52:30;;;;;;;39.10;35.00;;;;;;;10.55;79.52;98903.17;118275;1179;21917;-79
2021/11/02 09:55:38;;;;;;;34.50;30.90;;;;;;;10.58;79.78;98899.40;118160;1178;22011;-81
2021/11/02 09:58:56;;;;;;;32.20;28.90;;;;;;;10.62;79.78;98896.46;118188;1177;21876;-78
2021/11/02 10:02:13;;;;;;;33.80;30.50;;;;;;;10.61;79.73;98897.24;118376;1178;23451;-78
2021/11/02 10:04:58;;;;;;;32.20;29.00;;;;;;;10.65;79.78;98899.48;117782;1182;21917;-79
2021/11/02 10:08:38;;;;;;;35.70;31.30;;;;;;;10.69;79.85;98893.71;118203;1177;21905;-78
2021/11/02 10:11:32;;;;;;;29.30;26.60;;;;;;;10.69;79.65;98892.45;117648;1185;21872;-78
2021/11/02 10:14:24;;;;;;;28.60;25.70;;;;;;;10.71;79.54;98894.14;117557;1182;22056;-78
2021/11/02 10:17:24;;;;;;;28.10;25.40;;;;;;;10.73;79.33;98894.92;117626;1173;21859;-78
2021/11/02 10:20:03;;;;;;;26.70;24.10;;;;;;;10.71;79.26;98893.84;117934;1180;23415;-78
2021/11/02 10:22:52;;;;;;;26.90;24.30;;;;;;;10.71;79.23;98887.92;118127;1176;21850;-77
2021/11/02 10:26:19;;;;;;;24.60;22.20;;;;;;;10.75;79.27;98891.06;118203;1180;22192;-77
2021/11/02 10:29:17;;;;;;;24.00;21.80;;;;;;;10.76;79.18;98888.73;118160;1177;22392;-77
2021/11/02 10:31:49;;;;;;;27.80;25.10;;;;;;;10.76;79.12;98893.05;118822;1178;21865;-76
2021/11/02 10:34:47;;;;;;;28.70;25.70;;;;;;;10.78;79.02;98892.23;118629;1170;22613;-78
2021/11/02 10:38:02;;;;;;;25.10;22.70;;;;;;;10.81;78.98;98890.01;119460;1171;21869;-76
2021/11/02 10:40:47;;;;;;;22.60;20.40;;;;;;;10.83;78.92;98887.36;119020;1171;22656;-77
2021/11/02 10:44:01;;;;;;;22.30;20.10;;;;;;;10.84;78.69;98889.63;119516;1158;22884;-79
2021/11/02 10:46:36;;;;;;;;;;;;;;;10.79;78.57;98888.98;119126;1174;23423;-75
2021/11/02 10:49:19;;;;;;;22.60;20.40;;;;;;;10.72;78.91;98887.29;119018;1174;23438;-77
2021/11/02 10:52:08;;;;;;;25.70;22.90;;;;;;;10.72;78.69;98885.71;119084;1171;23459;-77
2021/11/02 10:55:18;;;;;;;25.10;21.90;;;;;;;10.79;78.83;98881.80;119133;1173;21860;-76
2021/11/02 10:58:31;;;;;;;22.70;20.60;;;;;;;10.83;78.57;98881.21;118805;1175;21959;-80
2021/11/02 11:01:10;;;;;;;29.40;26.60;;;;;;;10.77;78.48;98887.17;119041;1174;22693;-76
2021/11/02 11:03:41;;;;;;;28.00;25.00;;;;;;;10.74;78.60;98889.11;118533;1177;23014;-77
2021/11/02 11:06:16;;;;;;;26.10;23.50;;;;;;;10.80;78.81;98893.61;118440;1177;21879;-77
2021/11/02 11:08:48;;;;;;;26.00;23.40;;;;;;;10.83;78.52;98892.84;118377;1177;21854;-76
2021/11/02 11:11:20;;;;;;;27.00;24.30;;;;;;;10.85;78.43;98885.44;118479;1177;22045;-77
2021/11/02 11:22:40;;;;;;;27.60;24.90;;;;;;;10.87;78.55;98887.23;118094;1181;23648;-76
2021/11/02 11:25:15;;;;;;;34.90;31.50;;;;;;;10.86;78.27;98886.70;118358;1178;21882;-76
2021/11/02 11:27:55;;;;;;;27.70;25.00;;;;;;;10.94;78.52;98886.73;118497;1178;21877;-76
2021/11/02 11:30:36;;;;;;;28.00;25.30;;;;;;;11.02;78.62;98884.11;118342;1178;22843;-77
2021/11/02 11:33:11;;;;;;;25.10;22.60;;;;;;;11.06;78.20;98883.98;118409;1178;23438;-77
2021/11/02 11:35:41;;;;;;;24.10;21.90;;;;;;;11.02;77.57;98885.02;118765;1166;21981;-78
2021/11/02 11:38:16;;;;;;;23.60;21.40;;;;;;;11.00;77.60;98887.45;118974;1175;21834;-77
2021/11/02 11:40:45;;;;;;;23.80;21.40;;;;;;;11.00;77.56;98884.81;118871;1174;23424;-77
2021/11/02 11:43:15;;;;;;;21.60;19.50;;;;;;;10.99;77.64;98881.19;119245;1171;23508;-77
2021/11/02 11:45:49;;;;;;;27.50;21.70;;;;;;;11.03;77.57;98880.54;119381;1170;21858;-77
2021/11/02 11:48:24;;;;;;;24.50;22.10;;;;;;;11.00;77.21;98885.63;119338;1169;21861;-77
2021/11/02 11:50:58;;;;;;;22.50;20.30;;;;;;;10.99;77.21;98887.73;119274;1171;21894;-77
2021/11/02 11:53:31;;;;;;;18.00;16.20;;;;;;;10.98;77.06;98891.52;119366;1169;23674;-78
2021/11/02 11:56:17;;;;;;;18.90;17.10;;;;;;;10.95;76.86;98893.20;120007;1168;22608;-77
2021/11/02 11:58:51;;;;;;;20.00;17.70;;;;;;;10.98;77.06;98895.46;120245;1170;21843;-79
2021/11/02 12:01:46;;;;;;;21.20;18.90;;;;;;;11.03;77.04;98894.89;120157;1170;21857;-76
2021/11/02 12:04:33;;;;;;;22.50;15.70;;;;;;;11.07;76.81;98901.30;120139;1172;21869;-78
2021/11/02 12:07:38;;;;;;;14.80;12.80;;;;;;;11.12;76.86;98908.16;120141;1172;21853;-78
2021/11/02 12:10:10;;;;;;;16.90;14.30;;;;;;;11.20;76.66;98907.95;119943;1164;23607;-77
2021/11/02 12:12:42;;;;;;;14.50;12.10;;;;;;;11.23;76.42;98906.10;119958;1172;21849;-78
2021/11/02 12:15:17;;;;;;;10.10;9.10;;;;;;;11.27;75.98;98904.43;120114;1170;21882;-78
2021/11/02 12:17:50;;;;;;;8.90;8.00;;;;;;;11.27;75.51;98904.27;119827;1161;21888;-78
2021/11/02 12:20:22;;;;;;;9.80;8.80;;;;;;;11.23;75.16;98905.70;118837;1177;21883;-76
2021/11/02 12:23:17;;;;;;;11.10;8.20;;;;;;;11.24;75.27;98908.75;119098;1176;21845;-76
2021/11/02 12:25:57;;;;;;;11.00;8.40;;;;;;;11.25;75.02;98909.73;118987;1177;21874;-77
2021/11/02 12:28:38;;;;;;;12.30;11.20;;;;;;;11.23;74.46;98913.06;118383;1179;23421;-77
2021/11/02 12:31:10;;;;;;;9.70;8.70;;;;;;;11.19;74.45;98912.83;118510;1179;21875;-77
2021/11/02 12:33:51;;;;;;;7.70;6.90;;;;;;;11.21;74.60;98914.37;118142;1177;22624;-77
2021/11/02 12:36:23;;;;;;;8.40;7.60;;;;;;;11.23;74.52;98918.64;118318;1178;21842;-77
2021/11/02 12:39:06;;;;;;;9.20;8.20;;;;;;;11.23;74.30;98914.89;118593;1176;21921;-77
2021/11/02 12:41:47;;;;;;;18.60;16.70;;;;;;;11.15;73.70;98918.20;118700;1176;23398;-76
2021/11/02 12:44:22;;;;;;;7.00;6.30;;;;;;;11.10;73.89;98920.33;118864;1176;21876;-77
2021/11/02 12:46:52;;;;;;;6.10;5.50;;;;;;;11.09;74.20;98920.65;118661;1176;21848;-76
2021/11/02 12:49:48;;;;;;;7.30;6.10;;;;;;;11.06;73.92;98922.70;118611;1174;23586;-76
2021/11/02 12:52:19;;;;;;;6.70;6.00;;;;;;;10.95;73.53;98924.89;119288;1170;22631;-77
2021/11/02 12:55:23;;;;;;;7.30;6.60;;;;;;;10.88;73.63;98925.63;119438;1170;21860;-76
2021/11/02 12:58:13;;;;;;;9.50;8.60;;;;;;;10.87;74.15;98927.05;119044;1171;23532;-76
2021/11/02 13:01:01;;;;;;;8.70;7.90;;;;;;;10.85;74.00;98932.42;118874;1174;21853;-76
2021/11/02 13:03:39;;;;;;;9.00;7.90;;;;;;;10.81;73.98;98936.13;118967;1174;22078;-77
2021/11/02 13:06:10;;;;;;;10.60;9.30;;;;;;;10.79;74.23;98940.44;119138;1174;21867;-76
2021/11/02 13:08:57;;;;;;;8.40;7.50;;;;;;;10.85;74.65;98939.01;119525;1174;23436;-78
2021/11/02 13:11:29;;;;;;;12.70;11.40;;;;;;;10.89;74.69;98940.80;119077;1174;21850;-77
2021/11/02 13:14:10;;;;;;;9.60;8.60;;;;;;;10.93;74.70;98946.15;118972;1174;21937;-77
2021/11/02 13:17:03;;;;;;;8.50;7.30;;;;;;;10.96;74.45;98948.44;119398;1174;22021;-77
2021/11/02 13:19:43;;;;;;;9.60;7.70;;;;;;;10.94;74.20;98947.10;119890;1171;21921;-77
2021/11/02 13:22:28;;;;;;;10.10;9.10;;;;;;;10.96;74.40;98948.11;119742;1174;23481;-78
2021/11/02 13:25:07;;;;;;;9.10;6.60;;;;;;;11.00;74.42;98950.09;119436;1174;22998;-77
2021/11/02 13:27:46;;;;;;;8.20;7.10;;;;;;;11.04;74.55;98953.67;119127;1174;21883;-77
2021/11/02 13:30:39;;;;;;;10.10;7.60;;;;;;;11.06;74.35;98953.75;118567;1176;22038;-77
2021/11/02 13:33:18;;;;;;;6.30;5.70;;;;;;;11.03;74.06;98955.79;119295;1176;23441;-78
2021/11/02 13:35:58;;;;;;;6.10;5.50;;;;;;;10.95;73.95;98956.01;119860;1174;22049;-78
2021/11/02 13:38:36;;;;;;;7.40;5.50;;;;;;;10.94;74.26;98959.61;119757;1175;21865;-77
2021/11/02 13:41:24;;;;;;;10.90;8.20;;;;;;;10.91;74.18;98963.08;119661;1174;21854;-78
2021/11/02 13:44:04;;;;;;;7.90;6.30;;;;;;;10.88;74.39;98964.73;119742;1174;21960;-77
2021/11/02 13:46:46;;;;;;;10.60;7.70;;;;;;;10.88;74.65;98968.16;119221;1174;21843;-78
2021/11/02 13:49:18;;;;;;;8.70;6.30;;;;;;;10.88;74.71;98970.91;118953;1172;21857;-78
2021/11/02 13:51:49;;;;;;;5.80;4.80;;;;;;;10.89;74.78;98972.91;118979;1172;21934;-78
2021/11/02 13:54:20;;;;;;;7.10;5.50;;;;;;;10.90;74.84;98972.78;119214;1169;21873;-77
2021/11/02 13:56:48;;;;;;;5.80;4.70;;;;;;;10.91;74.67;98974.33;119239;1172;22388;-78
2021/11/02 13:59:17;;;;;;;10.20;5.00;;;;;;;10.88;74.46;98976.73;119477;1170;22924;-76
2021/11/02 14:01:55;;;;;;;7.70;4.90;;;;;;;10.86;74.38;98973.31;120252;1170;21866;-78
2021/11/02 14:04:43;;;;;;;6.00;4.90;;;;;;;10.85;74.06;98977.30;119400;1170;21877;-77
2021/11/02 14:07:27;;;;;;;6.60;4.30;;;;;;;10.82;74.06;98976.77;119391;1158;21851;-77
2021/11/02 14:10:15;;;;;;;6.20;4.00;;;;;;;10.82;74.03;98974.41;119316;1172;22005;-77
2021/11/02 14:12:54;;;;;;;5.70;3.90;;;;;;;10.81;73.88;98973.08;119447;1170;22631;-79
2021/11/02 14:15:32;;;;;;;6.60;5.60;;;;;;;10.81;73.66;98967.73;119498;1171;21847;-78
2021/11/02 14:18:13;;;;;;;6.90;6.10;;;;;;;10.82;73.65;98972.73;119478;1170;23666;-79
2021/11/02 14:20:49;;;;;;;25.40;19.90;;;;;;;10.84;73.51;98976.02;119447;1168;21836;-78
2021/11/02 14:23:31;;;;;;;7.90;7.10;;;;;;;10.86;73.37;98974.82;119372;1170;22296;-78
2021/11/02 14:26:26;;;;;;;13.40;9.40;;;;;;;10.86;73.37;98980.71;119324;1172;21858;-77
2021/11/02 14:28:59;;;;;;;14.00;11.90;;;;;;;10.86;73.26;98979.13;119498;1170;21868;-78
2021/11/02 14:31:40;;;;;;;18.00;12.80;;;;;;;10.87;73.11;98972.29;119432;1170;22124;-81
2021/11/02 14:34:09;;;;;;;15.20;10.90;;;;;;;10.88;72.90;98973.08;120225;1170;22602;-78
2021/11/02 14:36:41;;;;;;;13.60;11.20;;;;;;;10.90;72.81;98976.60;119485;1170;23417;-76
2021/11/02 14:39:13;;;;;;;12.10;9.80;;;;;;;10.92;72.70;98976.98;119186;1171;21882;-77
2021/11/02 14:41:49;;;;;;;10.30;8.20;;;;;;;10.91;72.56;98972.91;119460;1170;21875;-75
2021/11/02 14:44:24;;;;;;;8.50;6.70;;;;;;;10.90;72.38;98979.37;119307;1170;22039;-77
2021/11/02 14:46:56;;;;;;;8.20;7.20;;;;;;;10.89;72.27;98982.33;119368;1171;21886;-77
2021/11/02 14:49:50;;;;;;;9.40;7.00;;;;;;;10.88;72.18;98981.97;119379;1171;21888;-80
2021/11/02 14:52:26;;;;;;;13.70;8.60;;;;;;;10.85;72.02;98986.31;119115;1174;23513;-78
2021/11/02 14:54:54;;;;;;;11.10;9.70;;;;;;;10.83;72.00;98987.78;118843;1178;21864;-76
2021/11/02 14:57:38;;;;;;;12.40;10.80;;;;;;;10.84;72.01;98986.64;118743;1174;22106;-78
2021/11/02 15:00:08;;;;;;;14.10;12.60;;;;;;;10.83;71.72;98986.98;119089;1178;21923;-76
2021/11/02 15:02:43;;;;;;;22.20;17.10;;;;;;;10.81;71.75;98987.50;118759;1178;23601;-77
2021/11/02 15:05:19;;;;;;;18.50;14.70;;;;;;;10.81;71.77;98988.17;119122;1178;21877;-78
2021/11/02 15:07:51;;;;;;;16.90;12.80;;;;;;;10.82;71.75;98991.68;118741;1170;22888;-77
2021/11/02 15:10:20;;;;;;;19.30;15.70;;;;;;;10.80;71.48;98992.66;118483;1177;21905;-76
2021/11/02 15:12:49;;;;;;;18.50;13.80;;;;;;;10.75;71.25;98999.05;118238;1178;23441;-77
2021/11/02 15:15:18;;;;;;;15.40;11.50;;;;;;;10.69;71.22;98994.92;118740;1177;21869;-80
2021/11/02 15:17:52;;;;;;;13.30;10.10;;;;;;;10.65;71.32;98994.60;118857;1178;23530;-81
2021/11/02 15:20:28;;;;;;;13.40;11.60;;;;;;;10.62;71.44;98994.87;118950;1178;22879;-80
2021/11/02 15:22:59;;;;;;;11.40;10.20;;;;;;;10.62;71.70;98999.34;119101;1180;21942;-79
2021/11/02 15:25:34;;;;;;;;;;;;;;;10.61;71.59;99000.28;118609;1183;21839;-81
2021/11/02 15:28:04;;;;;;;11.80;9.40;;;;;;;10.52;71.76;98998.09;118587;1181;21892;-79
2021/11/02 15:30:35;;;;;;;15.80;14.00;;;;;;;10.49;71.77;99001.92;118793;1178;21878;-77
2021/11/02 15:33:32;;;;;;;13.70;12.20;;;;;;;10.52;71.96;99007.09;119270;1178;22163;-76
2021/11/02 15:36:18;;;;;;;12.20;10.90;;;;;;;10.53;72.01;99015.86;119002;1178;21897;-75
2021/11/02 15:39:07;;;;;;;12.60;11.30;;;;;;;10.55;72.27;99023.59;118973;1178;22888;-77
2021/11/02 15:41:37;;;;;;;10.80;9.70;;;;;;;10.55;72.21;99029.64;118897;1175;21911;-78
2021/11/02 15:44:13;;;;;;;15.80;14.20;;;;;;;10.54;72.15;99032.48;119314;1170;21897;-77
2021/11/02 15:46:42;;;;;;;16.80;14.10;;;;;;;10.55;72.24;99037.02;119461;1170;21873;-77
2021/11/02 15:49:13;;;;;;;18.80;14.90;;;;;;;10.54;72.12;99034.35;119655;1164;21862;-78
2021/11/02 15:51:58;;;;;;;19.90;14.50;;;;;;;10.52;71.91;99031.79;119469;1170;21948;-77
2021/11/02 15:54:26;;;;;;;11.80;9.60;;;;;;;10.49;71.93;99024.83;119335;1170;23605;-78
2021/11/02 15:57:08;;;;;;;13.40;11.50;;;;;;;10.47;71.98;99027.02;119102;1174;23380;-76
2021/11/02 15:59:36;;;;;;;14.00;12.60;;;;;;;10.45;72.06;99030.99;119084;1171;21882;-77
2021/11/02 16:02:04;;;;;;;15.90;13.60;;;;;;;10.42;71.95;99034.64;119161;1173;21872;-80
2021/11/02 16:04:32;;;;;;;18.10;15.60;;;;;;;10.36;71.79;99039.25;118921;1174;22481;-79
2021/11/02 16:07:10;;;;;;;23.10;18.70;;;;;;;10.30;71.82;99039.11;118937;1173;21849;-80
2021/11/02 16:09:53;;;;;;;26.50;23.00;;;;;;;10.27;72.03;99042.10;118763;1174;23417;-79
2021/11/02 16:12:35;;;;;;;24.10;21.40;;;;;;;10.26;72.02;99038.79;118652;1175;24576;-79
2021/11/02 16:15:06;;;;;;;24.50;20.50;;;;;;;10.22;71.87;99038.23;118833;1177;21900;-79
2021/11/02 16:17:57;;;;;;;22.70;19.70;;;;;;;10.17;71.92;99039.56;118630;1175;22512;-78
2021/11/02 16:20:39;;;;;;;20.30;16.10;;;;;;;10.13;72.07;99039.34;118435;1180;22775;-78
2021/11/02 16:23:19;;;;;;;18.60;14.90;;;;;;;10.10;72.07;99036.20;118803;1174;22894;-78
2021/11/02 16:26:10;;;;;;;22.10;17.20;;;;;;;10.05;72.20;99030.34;118978;1174;21878;-78
2021/11/02 16:28:38;;;;;;;23.30;19.30;;;;;;;10.02;72.32;99036.29;119286;1173;21862;-78
2021/11/02 16:31:08;;;;;;;21.60;17.70;;;;;;;10.00;72.21;99040.16;119305;1170;21865;-78
2021/11/02 16:33:44;;;;;;;33.10;25.30;;;;;;;9.98;72.39;99041.66;119433;1171;22310;-77
2021/11/02 16:36:37;;;;;;;35.40;31.40;;;;;;;9.96;72.55;99045.79;119490;1170;21873;-76
2021/11/02 16:39:13;;;;;;;27.90;24.70;;;;;;;9.92;72.70;99053.98;119480;1170;21859;-76
2021/11/02 16:41:54;;;;;;;22.70;19.30;;;;;;;9.88;72.76;99061.46;119399;1170;21889;-78
2021/11/02 16:44:34;;;;;;;22.40;19.90;;;;;;;9.85;72.77;99066.67;119133;1174;22759;-78
2021/11/02 16:47:09;;;;;;;29.50;26.10;;;;;;;9.84;72.94;99068.45;118980;1175;23518;-78
2021/11/02 16:49:44;;;;;;;28.90;23.80;;;;;;;9.85;73.21;99067.97;119103;1174;23456;-78
2021/11/02 16:52:28;;;;;;;24.70;22.20;;;;;;;9.87;73.28;99068.31;118979;1172;21877;-78
2021/11/02 16:55:14;;;;;;;26.00;21.10;;;;;;;9.87;73.30;99071.20;118999;1171;22887;-78
2021/11/02 16:57:43;;;;;;;27.50;24.60;;;;;;;9.90;73.37;99073.61;118900;1176;21865;-78
2021/11/02 17:00:26;;;;;;;27.40;24.60;;;;;;;9.91;73.48;99076.45;119006;1174;22950;-79
2021/11/02 17:03:05;;;;;;;22.00;19.70;;;;;;;9.93;73.47;99079.55;118966;1172;23418;-78
2021/11/02 17:05:39;;;;;;;20.70;18.30;;;;;;;9.93;73.53;99079.66;119025;1174;22997;-77
2021/11/02 17:08:14;;;;;;;22.50;20.30;;;;;;;9.94;73.49;99080.80;118940;1172;21864;-76
2021/11/02 17:10:45;;;;;;;23.40;19.20;;;;;;;9.94;73.37;99077.61;119580;1169;22920;-77
2021/11/02 17:13:26;;;;;;;23.70;21.10;;;;;;;9.95;73.43;99075.30;119348;1170;23618;-78
2021/11/02 17:16:18;;;;;;;23.90;20.60;;;;;;;9.95;73.42;99075.28;119954;1168;21865;-78
2021/11/02 17:19:01;;;;;;;22.60;18.20;;;;;;;9.92;73.34;99078.96;120020;1170;21859;-77
2021/11/02 17:21:36;;;;;;;26.00;20.10;;;;;;;9.90;73.40;99084.69;120128;1167;24437;-75
2021/11/02 17:24:08;;;;;;;33.00;27.30;;;;;;;9.92;73.43;99089.00;119371;1173;23601;-76
2021/11/02 17:26:37;;;;;;;35.80;29.90;;;;;;;9.93;73.38;99096.38;119055;1173;21863;-76
2021/11/02 17:29:06;;;;;;;33.10;26.20;;;;;;;9.88;73.08;99106.14;118977;1173;21888;-77
2021/11/02 17:31:39;;;;;;;28.80;23.80;;;;;;;9.82;73.15;99109.89;119167;1170;22636;-77